Terminal Aerodrome Forecast
Issued by NWS

Home | Current Version | Previous Version | Text Only | Print | Product List | Glossary On
Versions: 1 2 3 4 5 6 7 8 9 10 11 12 13
000
FTUS45 KABQ 242300
TAFAEG
TAF
KAEG 242323Z 2500/2524 VRB05KT P6SM SCT250
     FM250600 VRB05KT P6SM BKN200
     FM251500 17006KT P6SM SCT110
     FM252000 21012G20KT P6SM SCT090 BKN120=

USA.gov is the U.S. government's official web portal to all federal, state and local government web resources and services.